Time;durP1;ratioP1;P1;durP2;ratioP2;P2;SDS_P1;SDS_P2;PMS_P1;PMS_P2;Temp;Humidity;BMP_temperature;BMP_pressure;BME280_temperature;BME280_humidity;BME280_pressure;Samples;Min_cycle;Max_cycle;Signal;HPM_P1;HPM_P2
2023/05/28 00:00:26;;;;;;;;;9.33;9.00;;;;;19.19;46.68;101282.13;4986550;28;45397;-79
2023/05/28 00:02:51;;;;;;;;;11.67;10.00;;;;;19.07;46.36;101277.22;4967746;28;45245;-81
2023/05/28 00:05:17;;;;;;;;;9.33;8.00;;;;;19.26;46.90;101312.72;4978453;28;45433;-81
2023/05/28 00:07:42;;;;;;;;;14.67;11.33;;;;;18.88;46.98;101252.72;4984562;28;45423;-81
2023/05/28 00:10:08;;;;;;;;;7.33;7.00;;;;;19.24;47.03;101304.00;4967482;28;45460;-80
2023/05/28 00:12:33;;;;;;;;;10.33;8.00;;;;;18.68;47.05;101220.94;4992504;28;45503;-80
2023/05/28 00:14:59;;;;;;;;;7.67;7.00;;;;;19.10;47.42;101289.50;4998955;28;45314;-81
2023/05/28 00:17:25;;;;;;;;;11.00;9.67;;;;;19.20;47.09;101310.75;4979354;28;47349;-79
2023/05/28 00:19:50;;;;;;;;;12.33;8.67;;;;;19.12;47.21;101306.31;4992673;28;45171;-79
2023/05/28 00:22:16;;;;;;;;;14.00;12.00;;;;;18.97;47.80;101297.38;4992893;28;45496;-80
2023/05/28 00:24:41;;;;;;;;;10.67;10.67;;;;;18.64;48.09;101237.66;4972621;28;46643;-78
2023/05/28 00:27:07;;;;;;;;;14.67;12.67;;;;;19.01;48.33;101304.91;4979170;28;48162;-79
2023/05/28 00:29:33;;;;;;;;;10.33;10.00;;;;;18.97;48.39;101300.91;4971154;28;46235;-79
2023/05/28 00:31:58;;;;;;;;;10.33;9.67;;;;;18.93;48.26;101299.63;4993577;28;45428;-80
2023/05/28 00:34:24;;;;;;;;;9.67;9.00;;;;;18.88;48.88;101290.44;4993402;28;45525;-79
2023/05/28 00:36:51;;;;;;;;;10.67;9.33;;;;;18.62;48.86;101248.59;4976619;28;47514;-78
2023/05/28 00:39:17;;;;;;;;;11.00;9.67;;;;;18.73;49.01;101269.69;4987770;28;45334;-79
2023/05/28 00:41:42;;;;;;;;;14.00;11.67;;;;;18.79;49.55;101293.19;4990890;28;45581;-80
2023/05/28 00:44:11;;;;;;;;;10.33;8.67;;;;;18.71;50.06;101287.91;4981886;28;45240;-80
2023/05/28 00:46:42;;;;;;;;;9.67;9.67;;;;;18.70;50.11;101285.38;4985685;28;46557;-78
2023/05/28 00:49:10;;;;;;;;;12.33;10.33;;;;;18.75;50.15;101293.75;4989736;28;45491;-80
2023/05/28 00:51:36;;;;;;;;;10.33;10.33;;;;;18.20;50.16;101204.22;4981859;28;45555;-81
2023/05/28 00:54:03;;;;;;;;;14.67;10.67;;;;;18.45;50.39;101241.69;4997150;28;45505;-79
2023/05/28 00:56:28;;;;;;;;;13.00;13.00;;;;;18.56;50.66;101273.53;4964828;28;47974;-80
2023/05/28 00:58:55;;;;;;;;;15.00;12.00;;;;;18.54;51.12;101283.66;4979911;28;45435;-81
2023/05/28 01:01:24;;;;;;;;;14.00;12.33;;;;;18.55;51.40;101294.25;4984143;28;45429;-80
2023/05/28 01:03:51;;;;;;;;;13.33;10.67;;;;;18.46;51.69;101284.56;4976974;28;45391;-78
2023/05/28 01:06:20;;;;;;;;;15.67;12.67;;;;;18.54;51.75;101303.34;4994794;28;46417;-80
2023/05/28 01:08:47;;;;;;;;;14.33;11.00;;;;;18.48;52.40;101297.84;4980293;28;45255;-80
2023/05/28 01:11:16;;;;;;;;;11.33;10.33;;;;;18.43;52.54;101289.50;4980993;28;45316;-78
2023/05/28 01:13:42;;;;;;;;;14.33;12.33;;;;;18.43;52.33;101286.81;4986416;28;45515;-79
2023/05/28 01:16:09;;;;;;;;;11.67;11.00;;;;;17.92;52.17;101209.34;4993488;28;48347;-79
2023/05/28 01:18:37;;;;;;;;;12.67;10.33;;;;;18.42;52.30;101302.13;4990339;28;45831;-80
2023/05/28 01:21:03;;;;;;;;;23.67;13.67;;;;;18.33;52.73;101288.88;4961211;28;45268;-79
2023/05/28 01:23:29;;;;;;;;;17.67;14.67;;;;;18.40;53.16;101314.91;4977375;28;45751;-80
2023/05/28 01:25:56;;;;;;;;;13.00;10.67;;;;;17.84;53.21;101233.63;4985701;28;45836;-80
2023/05/28 01:28:22;;;;;;;;;13.67;10.33;;;;;18.24;53.06;101291.66;4969475;28;45310;-79
2023/05/28 01:30:47;;;;;;;;;12.00;10.67;;;;;18.31;53.30;101296.31;4978583;28;45287;-82
2023/05/28 01:33:13;;;;;;;;;13.33;11.00;;;;;18.29;53.08;101299.19;4978398;28;45287;-78
2023/05/28 01:35:41;;;;;;;;;12.00;12.00;;;;;18.35;53.31;101301.16;4981126;28;48082;-79
2023/05/28 01:38:10;;;;;;;;;16.67;11.00;;;;;18.32;52.87;101295.28;4986075;28;45458;-79
2023/05/28 01:40:38;;;;;;;;;11.67;11.67;;;;;18.39;53.12;101315.09;4978281;28;45536;-79
2023/05/28 01:43:04;;;;;;;;;13.67;12.33;;;;;18.36;53.37;101324.34;4991893;28;45593;-80
2023/05/28 01:45:30;;;;;;;;;13.33;13.33;;;;;17.90;53.15;101238.28;4996609;28;45568;-80
2023/05/28 01:47:56;;;;;;;;;13.67;12.33;;;;;18.16;53.68;101293.56;4986022;28;45554;-81
2023/05/28 01:50:22;;;;;;;;;13.00;12.67;;;;;17.76;54.17;101233.66;4980207;28;45682;-78
2023/05/28 01:52:47;;;;;;;;;19.33;16.33;;;;;18.17;53.91;101312.22;4959523;28;45539;-80
2023/05/28 01:55:13;;;;;;;;;18.33;17.00;;;;;18.09;54.65;101300.69;4984550;28;45619;-79
2023/05/28 01:57:39;;;;;;;;;24.00;18.67;;;;;18.17;54.23;101311.38;4962506;28;45978;-78
2023/05/28 02:00:06;;;;;;;;;25.67;23.67;;;;;18.13;54.26;101299.31;4994780;28;45327;-78
2023/05/28 02:02:31;;;;;;;;;26.67;22.67;;;;;18.08;54.15;101301.72;4995980;28;45447;-80
2023/05/28 02:04:57;;;;;;;;;20.67;19.67;;;;;17.95;54.50;101275.41;4973388;28;47016;-81
2023/05/28 02:07:22;;;;;;;;;22.00;19.67;;;;;17.90;54.47;101267.88;4979478;28;45355;-81
2023/05/28 02:09:48;;;;;;;;;21.00;18.67;;;;;18.04;54.72;101292.34;4981609;28;45385;-80
2023/05/28 02:12:13;;;;;;;;;22.33;18.67;;;;;17.85;55.07;101288.25;4988389;28;45247;-80
2023/05/28 02:14:38;;;;;;;;;25.67;20.00;;;;;17.88;55.00;101296.81;4969069;28;47976;-80
2023/05/28 02:17:04;;;;;;;;;19.33;16.00;;;;;17.57;55.07;101250.22;4967840;28;45293;-80
2023/05/28 02:19:29;;;;;;;;;17.33;16.67;;;;;17.74;55.29;101273.34;4978978;28;45354;-79
2023/05/28 02:21:55;;;;;;;;;23.00;17.33;;;;;17.69;55.10;101270.38;4988297;28;45357;-80
2023/05/28 02:24:21;;;;;;;;;9.00;8.00;;;;;17.46;55.51;101256.03;4994987;28;48499;-80
2023/05/28 02:26:47;;;;;;;;;18.00;16.67;;;;;17.81;55.89;101317.34;4989039;28;45243;-81
2023/05/28 02:29:12;;;;;;;;;16.00;15.00;;;;;17.78;56.12;101315.00;4983693;28;45509;-81
2023/05/28 02:31:37;;;;;;;;;13.67;13.67;;;;;17.77;55.86;101320.56;4977074;28;45681;-80
2023/05/28 02:34:03;;;;;;;;;18.00;15.67;;;;;17.70;56.14;101320.44;4971620;28;47309;-79
2023/05/28 02:36:29;;;;;;;;;14.00;14.00;;;;;17.66;56.14;101313.72;4988309;28;45226;-80
2023/05/28 02:38:55;;;;;;;;;18.33;17.33;;;;;17.66;56.28;101308.34;4978285;28;45306;-80
2023/05/28 02:41:20;;;;;;;;;13.00;12.00;;;;;17.29;56.08;101264.16;4979715;28;45262;-79
2023/05/28 02:43:46;;;;;;;;;17.33;14.00;;;;;17.62;56.08;101302.47;4987301;28;46314;-78
2023/05/28 02:46:11;;;;;;;;;25.67;19.33;;;;;17.69;56.07;101308.00;4962226;28;45493;-79
2023/05/28 02:48:37;;;;;;;;;18.33;18.33;;;;;17.69;56.03;101323.31;4961552;28;45524;-79
2023/05/28 02:51:03;;;;;;;;;19.33;14.33;;;;;17.67;56.04;101322.63;4972501;28;45415;-79
2023/05/28 02:53:33;;;;;;;;;22.33;18.33;;;;;17.57;56.15;101299.47;4968381;28;47485;-81
2023/05/28 02:55:58;;;;;;;;;13.67;13.33;;;;;17.60;55.85;101311.72;4988786;28;45442;-78
2023/05/28 02:58:24;;;;;;;;;17.67;14.33;;;;;17.58;56.53;101308.38;4990041;28;45285;-78
2023/05/28 03:00:49;;;;;;;;;17.33;17.00;;;;;17.44;56.24;101287.63;4987173;28;45423;-78
2023/05/28 03:03:16;;;;;;;;;16.33;14.00;;;;;17.52;56.24;101309.06;4970550;28;47848;-80
2023/05/28 03:05:41;;;;;;;;;21.00;13.00;;;;;17.42;56.47;101290.50;4994768;28;45372;-79
2023/05/28 03:08:07;;;;;;;;;18.33;14.67;;;;;17.49;56.51;101309.44;4977045;28;45363;-78
2023/05/28 03:10:32;;;;;;;;;16.67;14.67;;;;;17.41;56.76;101293.31;4984641;28;45440;-79
2023/05/28 03:12:58;;;;;;;;;16.67;16.67;;;;;17.42;56.76;101295.00;4990942;28;46142;-80
2023/05/28 03:15:26;;;;;;;;;18.67;16.67;;;;;17.54;56.41;101315.94;4984096;28;45307;-82
2023/05/28 03:17:55;;;;;;;;;16.67;16.67;;;;;17.53;56.47;101316.97;4993091;28;45415;-80
2023/05/28 03:20:21;;;;;;;;;21.00;17.00;;;;;17.52;56.27;101314.44;4984071;28;45552;-79
2023/05/28 03:22:47;;;;;;;;;21.33;19.33;;;;;17.30;56.46;101281.97;4971566;28;47346;-79
2023/05/28 03:25:13;;;;;;;;;18.33;13.00;;;;;17.16;56.63;101269.25;4998610;28;45313;-78
2023/05/28 03:27:38;;;;;;;;;12.67;11.00;;;;;17.26;56.81;101296.75;4978063;28;45486;-78
2023/05/28 03:30:06;;;;;;;;;17.33;16.67;;;;;16.84;56.66;101229.09;4962548;28;45663;-80
2023/05/28 03:32:32;;;;;;;;;20.67;16.33;;;;;17.28;56.52;101286.69;4992794;28;45668;-78
2023/05/28 03:34:58;;;;;;;;;14.67;13.33;;;;;17.46;56.25;101309.78;4994241;28;45341;-79
2023/05/28 03:37:24;;;;;;;;;16.33;13.33;;;;;17.43;56.32;101294.00;4981929;28;45191;-80
2023/05/28 03:39:49;;;;;;;;;15.67;14.00;;;;;17.39;56.18;101295.34;4982039;28;45499;-79
2023/05/28 03:42:15;;;;;;;;;28.33;18.33;;;;;17.33;56.14;101280.78;4975442;28;45922;-77
2023/05/28 03:44:40;;;;;;;;;17.67;12.67;;;;;17.14;56.19;101257.84;4972055;28;45324;-78
2023/05/28 03:47:06;;;;;;;;;21.67;18.00;;;;;17.49;56.54;101307.56;4971210;28;45678;-79
2023/05/28 03:49:32;;;;;;;;;20.33;19.33;;;;;17.37;56.88;101306.28;4959920;28;45548;-79
2023/05/28 03:51:57;;;;;;;;;14.00;13.67;;;;;17.37;56.44;101300.91;4978420;28;45453;-78
2023/05/28 03:54:22;;;;;;;;;20.00;18.00;;;;;17.11;57.00;101277.00;4961162;28;46103;-79
2023/05/28 03:56:48;;;;;;;;;21.33;18.33;;;;;17.15;57.30;101286.38;4996075;28;45729;-77
2023/05/28 03:59:13;;;;;;;;;21.67;18.00;;;;;17.07;57.44;101285.59;4989880;28;45286;-79
2023/05/28 04:01:38;;;;;;;;;18.33;16.33;;;;;17.16;57.80;101297.97;4988822;28;45690;-78
2023/05/28 04:04:04;;;;;;;;;19.67;17.33;;;;;17.15;57.32;101294.44;4991771;28;45390;-79
2023/05/28 04:06:31;;;;;;;;;22.33;18.67;;;;;17.06;57.33;101289.28;4986537;28;45263;-80
2023/05/28 04:08:57;;;;;;;;;13.33;13.00;;;;;17.18;57.37;101302.16;4985790;28;45507;-79
2023/05/28 04:11:24;;;;;;;;;20.33;17.67;;;;;17.21;57.43;101320.59;4975058;28;48291;-79
2023/05/28 04:13:52;;;;;;;;;20.00;18.33;;;;;17.00;57.31;101285.41;4981992;28;45376;-80
2023/05/28 04:16:22;;;;;;;;;20.33;20.00;;;;;17.15;57.37;101320.47;4996523;28;45284;-80
2023/05/28 04:18:48;;;;;;;;;18.33;18.00;;;;;17.01;57.62;101304.03;4980749;28;45365;-79
2023/05/28 04:21:13;;;;;;;;;20.67;18.67;;;;;16.91;57.58;101291.84;4989559;28;45894;-79
2023/05/28 04:23:38;;;;;;;;;19.00;18.33;;;;;17.08;57.66;101311.44;4962854;28;45408;-78
2023/05/28 04:26:06;;;;;;;;;18.00;15.00;;;;;16.76;57.57;101267.53;4987844;28;45837;-79
2023/05/28 04:28:33;;;;;;;;;24.67;19.67;;;;;16.85;58.09;101287.16;4999319;28;45623;-78
2023/05/28 04:31:00;;;;;;;;;22.00;20.33;;;;;16.93;57.85;101311.31;4992069;28;45442;-78
2023/05/28 04:33:28;;;;;;;;;21.67;18.67;;;;;16.93;58.01;101305.94;4985436;28;45424;-78
2023/05/28 04:35:54;;;;;;;;;19.33;16.33;;;;;16.82;57.80;101287.47;4993771;28;45439;-78
2023/05/28 04:38:20;;;;;;;;;20.00;14.33;;;;;17.02;58.04;101326.41;4977627;28;45226;-79
2023/05/28 04:40:45;;;;;;;;;17.00;15.33;;;;;17.02;57.54;101327.25;4959866;28;47692;-80
2023/05/28 04:43:11;;;;;;;;;16.67;16.67;;;;;16.85;58.06;101304.13;4960182;28;46240;-80
2023/05/28 04:45:37;;;;;;;;;20.33;17.33;;;;;16.64;58.28;101285.00;4966933;28;45468;-78
2023/05/28 04:48:04;;;;;;;;;21.67;17.00;;;;;16.84;57.78;101312.34;4989280;28;45357;-80
2023/05/28 04:50:30;;;;;;;;;22.67;20.67;;;;;16.83;58.28;101324.09;4995396;28;46818;-79
2023/05/28 04:52:55;;;;;;;;;22.00;18.33;;;;;16.80;57.83;101327.94;4986876;28;46074;-80
2023/05/28 04:55:22;;;;;;;;;17.33;17.33;;;;;16.79;58.35;101325.41;4987203;28;45281;-82
2023/05/28 04:57:47;;;;;;;;;19.67;18.67;;;;;16.59;58.26;101301.59;4986659;28;45417;-79
2023/05/28 05:00:13;;;;;;;;;22.67;19.00;;;;;16.83;58.06;101340.22;4977382;28;45369;-79
2023/05/28 05:02:41;;;;;;;;;27.33;22.00;;;;;16.59;58.32;101331.13;4976590;28;45398;-77
2023/05/28 05:05:07;;;;;;;;;22.00;20.00;;;;;16.68;58.50;101332.84;4975452;28;45281;-78
2023/05/28 05:07:37;;;;;;;;;20.00;17.00;;;;;16.70;58.30;101319.25;4980649;28;45436;-79
2023/05/28 05:10:13;;;;;;;;;22.00;19.00;;;;;16.84;58.17;101340.03;4982923;28;45422;-82
2023/05/28 05:12:38;;;;;;;;;22.33;18.33;;;;;16.93;58.06;101343.53;4971780;28;45300;-78
2023/05/28 05:15:08;;;;;;;;;20.67;17.33;;;;;16.94;57.58;101339.84;4977414;28;45528;-79
2023/05/28 05:17:33;;;;;;;;;20.33;16.67;;;;;16.93;57.86;101338.16;4971055;28;45454;-78
2023/05/28 05:20:03;;;;;;;;;17.67;12.67;;;;;16.86;57.63;101326.44;4989370;28;46313;-78
2023/05/28 05:22:28;;;;;;;;;17.33;15.00;;;;;16.81;57.91;101323.41;4979997;28;45476;-80
2023/05/28 05:24:53;;;;;;;;;17.33;13.33;;;;;16.87;57.47;101336.16;4986406;28;45238;-79
2023/05/28 05:27:19;;;;;;;;;13.00;11.67;;;;;16.88;57.62;101327.94;4993222;28;45202;-79
2023/05/28 05:29:44;;;;;;;;;21.00;19.00;;;;;16.59;57.47;101280.09;4986180;28;46142;-79
2023/05/28 05:32:10;;;;;;;;;22.33;19.67;;;;;16.97;57.03;101339.50;4977990;28;45652;-78
2023/05/28 05:34:35;;;;;;;;;19.67;16.67;;;;;17.06;56.95;101340.31;4984009;28;45456;-81
2023/05/28 05:37:02;;;;;;;;;27.33;23.67;;;;;17.13;56.87;101347.50;4987254;28;45622;-81
2023/05/28 05:39:28;;;;;;;;;19.67;18.33;;;;;17.08;56.67;101336.47;4983947;28;46646;-81
2023/05/28 05:41:53;;;;;;;;;18.00;17.00;;;;;17.05;57.07;101319.84;4964740;28;45674;-80
2023/05/28 05:44:19;;;;;;;;;22.00;17.00;;;;;17.06;56.57;101316.16;4966420;28;45687;-85
2023/05/28 05:46:44;;;;;;;;;24.00;20.67;;;;;17.29;56.49;101349.31;4981531;28;45608;-81
2023/05/28 05:49:09;;;;;;;;;20.00;20.00;;;;;17.23;56.17;101333.91;4986122;28;45893;-81
2023/05/28 05:51:36;;;;;;;;;21.67;20.00;;;;;17.12;55.89;101310.91;4983054;28;45642;-84
2023/05/28 05:54:02;;;;;;;;;20.00;15.33;;;;;17.04;56.21;101276.03;4983536;28;45223;-77
2023/05/28 05:56:28;;;;;;;;;22.00;19.67;;;;;17.70;55.43;101352.72;4980795;28;45476;-78
2023/05/28 05:58:53;;;;;;;;;19.33;17.33;;;;;18.17;54.38;101338.28;4985513;28;45874;-78
2023/05/28 06:01:20;;;;;;;;;17.67;16.00;;;;;18.59;53.01;101301.94;4979337;28;45239;-78
2023/05/28 06:03:45;;;;;;;;;22.00;19.33;;;;;19.47;50.57;101353.25;4986402;28;45382;-76
2023/05/28 06:06:11;;;;;;;;;24.00;18.33;;;;;19.87;49.26;101346.50;4976054;28;45940;-71
2023/05/28 06:08:37;;;;;;;;;22.67;21.33;;;;;20.23;48.34;101333.00;4983141;28;46172;-73
2023/05/28 06:11:02;;;;;;;;;20.00;19.00;;;;;20.55;47.19;101288.41;4974508;28;45584;-72
2023/05/28 06:13:28;;;;;;;;;20.00;19.33;;;;;21.35;45.79;101335.75;4961433;28;45492;-72
2023/05/28 06:15:54;;;;;;;;;21.33;20.33;;;;;21.62;44.73;101306.09;4959433;28;45672;-73
2023/05/28 06:18:19;;;;;;;;;17.67;14.33;;;;;22.24;43.60;101324.81;4986833;28;46567;-73
2023/05/28 06:20:45;;;;;;;;;19.33;18.33;;;;;22.59;42.92;101311.91;4988076;28;45494;-74
2023/05/28 06:23:10;;;;;;;;;14.00;14.00;;;;;23.10;41.58;101330.22;4978011;28;45610;-74
2023/05/28 06:25:37;;;;;;;;;18.00;17.00;;;;;23.26;40.60;101299.09;4988326;28;45332;-74
2023/05/28 06:28:03;;;;;;;;;19.00;19.00;;;;;23.91;40.43;101327.84;4980409;28;45863;-73
2023/05/28 06:30:29;;;;;;;;;20.67;16.00;;;;;24.21;38.70;101336.22;4976657;28;45444;-73
2023/05/28 06:32:54;;;;;;;;;22.67;18.67;;;;;24.46;38.63;101338.19;4985010;28;45218;-74
2023/05/28 06:35:20;;;;;;;;;20.00;13.00;;;;;24.92;37.76;101331.50;4979058;28;45552;-74
2023/05/28 06:37:45;;;;;;;;;15.67;15.33;;;;;25.21;37.40;101329.94;4962274;28;48041;-73
2023/05/28 06:40:11;;;;;;;;;19.33;16.67;;;;;25.53;36.78;101323.28;4985107;28;45537;-74
2023/05/28 06:42:38;;;;;;;;;19.67;18.33;;;;;25.62;36.13;101302.84;4978013;28;45508;-75
2023/05/28 06:45:03;;;;;;;;;15.67;14.00;;;;;26.11;35.94;101313.72;4986738;28;45588;-73
2023/05/28 06:47:29;;;;;;;;;20.00;16.67;;;;;26.37;35.50;101327.78;4985071;28;46042;-71
2023/05/28 06:49:55;;;;;;;;;18.00;17.33;;;;;26.64;34.16;101319.19;4984199;28;45476;-76
2023/05/28 06:52:21;;;;;;;;;20.33;20.00;;;;;27.03;33.35;101327.72;4972536;28;46798;-76
2023/05/28 06:54:46;;;;;;;;;19.00;19.00;;;;;27.25;33.73;101328.81;4961551;28;45340;-73
2023/05/28 06:57:11;;;;;;;;;17.67;17.33;;;;;27.30;32.94;101277.03;4976355;28;47851;-73
2023/05/28 06:59:37;;;;;;;;;19.33;18.00;;;;;27.80;31.88;101326.38;4978510;28;50257;-73
2023/05/28 07:02:02;;;;;;;;;16.67;15.67;;;;;27.99;31.25;101342.59;4967402;28;45338;-73
2023/05/28 07:04:28;;;;;;;;;19.67;17.67;;;;;28.07;32.14;101337.56;4980506;28;45222;-74
2023/05/28 07:06:54;;;;;;;;;13.67;12.67;;;;;28.31;30.94;101341.03;4977965;28;47508;-73
2023/05/28 07:09:19;;;;;;;;;14.67;14.67;;;;;28.20;30.00;101295.41;4981630;28;45299;-74
2023/05/28 07:11:45;;;;;;;;;22.67;18.33;;;;;28.44;30.45;101331.69;4959545;28;45381;-75
2023/05/28 07:14:10;;;;;;;;;20.00;17.67;;;;;28.57;30.26;101323.13;4981057;28;45541;-74
2023/05/28 07:16:36;;;;;;;;;21.67;20.67;;;;;28.42;29.94;101303.72;4958094;28;46606;-75
2023/05/28 07:19:01;;;;;;;;;22.33;19.00;;;;;28.76;30.26;101332.72;4972326;28;46188;-75
2023/05/28 07:21:27;;;;;;;;;19.67;16.67;;;;;29.02;29.86;101335.84;4960522;28;45380;-76
2023/05/28 07:23:52;;;;;;;;;16.33;13.67;;;;;29.00;30.26;101324.34;4988324;28;45529;-74
2023/05/28 07:26:17;;;;;;;;;16.67;16.67;;;;;29.34;29.55;101333.28;4980694;28;45492;-73
2023/05/28 07:28:43;;;;;;;;;20.00;17.67;;;;;29.17;29.18;101327.88;4983178;28;45477;-73
2023/05/28 07:31:08;;;;;;;;;19.67;19.67;;;;;28.69;30.30;101296.50;4987178;28;45400;-74
2023/05/28 07:33:35;;;;;;;;;22.00;16.00;;;;;29.14;29.49;101328.38;4993799;28;45309;-74
2023/05/28 07:36:00;;;;;;;;;16.00;16.00;;;;;29.35;29.83;101332.22;4986457;28;46051;-76
2023/05/28 07:38:25;;;;;;;;;18.67;16.00;;;;;29.39;29.20;101262.97;4983964;28;45460;-75
2023/05/28 07:40:51;;;;;;;;;18.00;16.33;;;;;29.99;29.18;101274.84;4965953;28;45551;-78
2023/05/28 07:43:16;;;;;;;;;14.00;13.00;;;;;30.59;27.84;101323.09;4979404;28;45647;-75
2023/05/28 07:45:42;;;;;;;;;18.33;16.00;;;;;30.91;27.42;101327.75;4980284;28;52426;-76
2023/05/28 07:48:07;;;;;;;;;14.67;14.00;;;;;31.15;26.43;101312.50;4961153;28;45596;-74
2023/05/28 07:50:32;;;;;;;;;14.00;14.00;;;;;31.51;27.09;101330.00;4984544;28;45458;-74
2023/05/28 07:52:58;;;;;;;;;17.33;13.67;;;;;31.76;26.44;101327.34;4975629;28;45545;-76
2023/05/28 07:55:23;;;;;;;;;13.67;13.00;;;;;31.97;26.22;101325.47;4987672;28;45695;-74
2023/05/28 07:57:49;;;;;;;;;18.00;17.67;;;;;31.81;25.73;101315.53;4966348;28;45389;-75
2023/05/28 08:00:16;;;;;;;;;16.33;16.33;;;;;31.80;26.30;101311.13;4980655;28;45290;-81
2023/05/28 08:02:43;;;;;;;;;18.00;16.00;;;;;31.52;26.04;101319.84;4980079;28;45561;-76
2023/05/28 08:05:08;;;;;;;;;19.00;13.67;;;;;31.08;26.19;101274.31;4978574;28;46737;-77
2023/05/28 08:07:34;;;;;;;;;16.67;15.33;;;;;31.19;26.83;101319.13;4980285;28;45456;-73
2023/05/28 08:10:00;;;;;;;;;14.00;12.67;;;;;31.11;26.57;101314.97;4976596;28;45546;-76
2023/05/28 08:12:26;;;;;;;;;13.00;13.00;;;;;30.99;27.03;101305.28;4975733;28;45982;-79
2023/05/28 08:14:51;;;;;;;;;20.67;15.33;;;;;31.35;26.25;101309.88;4979836;28;46255;-79
2023/05/28 08:17:16;;;;;;;;;21.67;17.33;;;;;31.18;26.24;101307.31;4957190;28;45523;-75
2023/05/28 08:19:42;;;;;;;;;21.33;19.33;;;;;30.48;27.18;101264.59;4979028;28;45366;-77
2023/05/28 08:22:11;;;;;;;;;16.67;15.00;;;;;30.59;27.17;101274.53;4984011;28;45275;-78
2023/05/28 08:24:36;;;;;;;;;16.67;14.00;;;;;31.00;26.54;101273.97;4981915;28;45356;-77
2023/05/28 08:27:02;;;;;;;;;15.00;12.00;;;;;31.52;26.54;101308.84;4986233;28;45816;-79
2023/05/28 08:29:27;;;;;;;;;15.33;14.00;;;;;31.73;25.96;101294.91;4983782;28;45722;-77
2023/05/28 08:31:52;;;;;;;;;15.33;14.67;;;;;31.87;25.52;101294.41;4984740;28;45575;-77
2023/05/28 08:34:18;;;;;;;;;15.33;14.33;;;;;31.77;25.10;101286.94;4993593;28;45753;-78
2023/05/28 08:36:43;;;;;;;;;13.33;12.33;;;;;31.54;26.00;101247.00;4984385;28;45480;-77
2023/05/28 08:39:09;;;;;;;;;14.00;12.00;;;;;31.82;25.66;101302.63;4987791;28;45361;-77
2023/05/28 08:41:35;;;;;;;;;16.33;13.67;;;;;31.92;26.44;101308.97;4990620;28;45496;-78
2023/05/28 08:44:01;;;;;;;;;9.00;8.00;;;;;32.17;25.49;101294.41;4977216;28;45667;-76
2023/05/28 08:46:29;;;;;;;;;16.00;13.33;;;;;32.17;24.91;101288.06;4989889;28;45329;-76
2023/05/28 08:48:55;;;;;;;;;13.67;12.33;;;;;32.50;25.51;101298.56;4979212;28;45537;-79
2023/05/28 08:51:24;;;;;;;;;14.33;14.33;;;;;32.53;25.56;101247.63;4959524;28;45289;-77
2023/05/28 08:53:51;;;;;;;;;17.00;14.00;;;;;32.82;24.81;101256.13;4993707;28;45985;-78
2023/05/28 08:56:17;;;;;;;;;16.00;12.33;;;;;33.31;23.79;101272.75;4980944;28;45515;-78
2023/05/28 08:58:44;;;;;;;;;12.67;12.33;;;;;33.83;24.23;101279.59;4994898;28;45362;-79
2023/05/28 09:01:10;;;;;;;;;21.33;16.33;;;;;34.19;23.47;101282.94;4994907;28;45413;-77
2023/05/28 09:03:41;;;;;;;;;11.00;10.00;;;;;34.25;23.21;101268.00;4987314;28;46632;-78
2023/05/28 09:06:07;;;;;;;;;16.00;9.33;;;;;34.67;22.69;101272.06;4987283;28;45623;-77
2023/05/28 09:08:33;;;;;;;;;13.00;12.33;;;;;34.57;22.11;101270.22;4994438;28;45425;-78
2023/05/28 09:11:10;;;;;;;;;13.33;12.67;;;;;34.42;22.13;101278.63;4997178;28;45573;-81
2023/05/28 09:13:35;;;;;;;;;15.33;14.00;;;;;34.13;22.29;101227.00;4970815;28;45611;-77
2023/05/28 09:16:00;;;;;;;;;12.33;11.00;;;;;34.65;21.78;101236.44;4976750;28;45172;-78
2023/05/28 09:18:26;;;;;;;;;12.33;12.33;;;;;35.36;21.05;101254.94;4982863;28;45287;-80
2023/05/28 09:20:51;;;;;;;;;11.67;11.00;;;;;36.06;20.69;101258.91;4991138;28;46632;-78
2023/05/28 09:23:18;;;;;;;;;14.00;11.67;;;;;36.40;20.00;101273.25;4987427;28;46300;-79
2023/05/28 09:25:46;;;;;;;;;11.00;10.67;;;;;36.56;19.91;101246.94;4983454;28;45409;-79
2023/05/28 09:28:15;;;;;;;;;5.00;5.00;;;;;37.03;19.82;101271.78;4984192;28;45530;-78
2023/05/28 09:30:41;;;;;;;;;12.00;11.00;;;;;37.02;19.72;101262.66;4995668;28;45471;-78
2023/05/28 09:33:08;;;;;;;;;9.33;9.00;;;;;37.72;19.37;101253.94;4995150;28;46458;-78
2023/05/28 09:35:35;;;;;;;;;5.00;5.00;;;;;38.16;18.68;101252.28;4984597;28;45548;-78
2023/05/28 09:38:04;;;;;;;;;13.67;11.67;;;;;38.58;18.55;101255.63;4966902;28;45368;-79
2023/05/28 09:40:29;;;;;;;;;11.33;10.33;;;;;39.40;17.86;101252.13;4994592;28;45488;-78
2023/05/28 09:42:54;;;;;;;;;15.33;14.67;;;;;39.61;17.01;101257.09;4984343;28;45910;-78
2023/05/28 09:45:27;;;;;;;;;12.33;11.67;;;;;39.03;17.56;101236.03;4992764;28;45232;-79
2023/05/28 09:47:53;;;;;;;;;15.00;12.67;;;;;38.62;17.38;101248.28;4987280;28;45505;-78
2023/05/28 09:50:19;;;;;;;;;14.00;11.00;;;;;37.87;17.94;101240.84;4988163;28;45470;-80
2023/05/28 09:52:46;;;;;;;;;11.00;10.00;;;;;37.58;18.19;101242.03;4982629;28;48478;-76
2023/05/28 09:55:20;;;;;;;;;9.67;9.67;;;;;36.61;18.83;101173.16;4976261;28;45431;-79
2023/05/28 09:57:51;;;;;;;;;12.67;11.67;;;;;36.37;19.27;101251.72;4978217;28;45508;-79
2023/05/28 10:00:25;;;;;;;;;10.00;9.67;;;;;35.79;20.19;101241.03;4988333;28;45305;-78
2023/05/28 10:03:00;;;;;;;;;9.00;8.00;;;;;35.36;20.47;101243.88;4984453;28;46109;-76
2023/05/28 10:05:31;;;;;;;;;11.67;10.67;;;;;34.82;20.53;101235.13;4983968;28;45329;-76
2023/05/28 10:07:57;;;;;;;;;8.33;8.33;;;;;34.04;21.34;101192.03;4978631;28;45375;-77
2023/05/28 10:10:23;;;;;;;;;8.67;8.67;;;;;33.63;22.41;101232.88;4994836;28;45433;-78
2023/05/28 10:12:53;;;;;;;;;10.33;8.33;;;;;32.75;22.97;101234.34;4987497;28;45749;-77
2023/05/28 10:15:19;;;;;;;;;12.33;12.33;;;;;31.85;23.64;101227.84;4993956;28;45538;-77
2023/05/28 10:17:45;;;;;;;;;6.67;6.67;;;;;31.25;24.57;101204.63;4990098;28;45479;-78
2023/05/28 10:20:11;;;;;;;;;11.33;9.33;;;;;30.81;25.18;101243.41;4968471;28;45333;-78
2023/05/28 10:22:39;;;;;;;;;9.33;8.00;;;;;30.12;25.72;101183.13;4987176;28;46809;-77
2023/05/28 10:25:07;;;;;;;;;11.00;10.00;;;;;29.95;26.19;101227.09;4970465;28;45415;-77
2023/05/28 10:27:35;;;;;;;;;10.00;10.00;;;;;28.90;26.16;101125.22;4986885;28;45255;-78
2023/05/28 10:30:04;;;;;;;;;11.67;9.00;;;;;29.31;26.30;101241.50;4987588;28;45536;-77
2023/05/28 10:32:38;;;;;;;;;14.33;11.33;;;;;28.78;27.01;101215.63;4985724;28;46703;-78
2023/05/28 10:35:04;;;;;;;;;10.00;8.33;;;;;28.37;28.06;101224.34;4980806;28;45505;-77
2023/05/28 10:37:29;;;;;;;;;8.33;7.00;;;;;28.02;28.41;101197.22;4990283;28;45446;-78
2023/05/28 10:39:55;;;;;;;;;12.67;12.00;;;;;27.92;30.16;101225.22;4988378;28;45416;-78
2023/05/28 10:42:21;;;;;;;;;11.33;11.00;;;;;27.79;30.26;101223.63;4991711;28;46428;-78
2023/05/28 10:44:50;;;;;;;;;13.00;12.33;;;;;27.64;30.40;101228.00;4989933;28;45483;-79
2023/05/28 10:47:18;;;;;;;;;8.67;7.33;;;;;27.33;28.79;101216.47;4987139;28;45285;-78
2023/05/28 10:50:13;;;;;;;;;5.67;5.67;;;;;27.26;27.65;101226.72;4979099;28;45626;-78
2023/05/28 10:52:39;;;;;;;;;10.00;9.00;;;;;27.03;27.66;101224.88;4978503;28;45728;-77
2023/05/28 10:55:11;;;;;;;;;9.00;9.00;;;;;26.67;28.48;101220.53;4987420;28;45460;-78
2023/05/28 10:57:47;;;;;;;;;9.33;8.00;;;;;26.63;29.18;101219.31;4992233;28;45259;-79
2023/05/28 11:00:23;;;;;;;;;9.33;9.33;;;;;26.40;29.04;101209.25;4996247;28;45533;-79
2023/05/28 11:02:51;;;;;;;;;6.00;5.00;;;;;26.08;29.31;101189.69;4964500;28;47779;-79
2023/05/28 11:05:16;;;;;;;;;6.67;6.67;;;;;26.11;29.88;101227.34;4973145;28;45702;-78
2023/05/28 11:07:42;;;;;;;;;9.33;7.00;;;;;26.05;29.64;101214.69;4972962;28;45409;-77